createdAt,value
2023-01-21T00:01:26.305Z,34.20
2023-01-21T00:06:28.088Z,34.92
2023-01-21T00:11:30.366Z,33.65
2023-01-21T00:16:32.132Z,31.52
2023-01-21T00:21:33.878Z,30.75
2023-01-21T00:26:35.618Z,31.55
2023-01-21T00:31:37.619Z,31.42
2023-01-21T00:36:39.461Z,32.97
2023-01-21T00:41:42.717Z,36.17
2023-01-21T00:46:44.464Z,36.58
2023-01-21T00:51:46.520Z,33.58
2023-01-21T00:56:49.704Z,39.30
2023-01-21T01:01:51.742Z,37.42
2023-01-21T01:06:55.047Z,39.00
2023-01-21T01:11:57.180Z,39.72
2023-01-21T01:16:58.863Z,36.70
2023-01-21T01:22:00.635Z,38.20
2023-01-21T01:27:02.356Z,38.75
2023-01-21T01:32:06.764Z,35.05
2023-01-21T01:37:11.104Z,32.08
2023-01-21T01:42:17.429Z,32.53
2023-01-21T01:47:20.116Z,35.25
2023-01-21T01:52:22.814Z,33.47
2023-01-21T01:57:31.834Z,35.22
2023-01-21T02:02:34.884Z,35.78
2023-01-21T02:07:42.590Z,30.77
2023-01-21T02:12:46.757Z,34.78
2023-01-21T02:18:07.077Z,30.02
2023-01-21T02:23:33.344Z,30.23
2023-01-21T02:29:05.809Z,29.80
2023-01-21T02:34:32.876Z,32.90
2023-01-21T02:40:19.685Z,31.58
2023-01-21T02:45:29.768Z,33.60
2023-01-21T02:50:44.874Z,32.97
2023-01-21T02:55:46.746Z,37.33
2023-01-21T03:01:30.843Z,34.70
2023-01-21T03:06:59.642Z,31.00
2023-01-21T03:12:29.817Z,35.42
2023-01-21T03:17:43.268Z,33.33
2023-01-21T03:22:46.237Z,31.38
2023-01-21T03:27:49.776Z,32.47
2023-01-21T03:32:54.503Z,33.85
2023-01-21T03:38:20.485Z,30.88
2023-01-21T03:43:22.463Z,26.52
2023-01-21T03:48:40.297Z,26.95
2023-01-21T03:53:43.175Z,28.40
2023-01-21T03:58:46.505Z,33.67
2023-01-21T04:03:49.895Z,31.08
2023-01-21T04:08:51.633Z,31.50
2023-01-21T04:13:53.328Z,35.80
2023-01-21T04:18:55.313Z,37.15
2023-01-21T04:23:56.997Z,39.80
2023-01-21T04:28:58.727Z,36.90
2023-01-21T04:34:00.744Z,36.55
2023-01-21T04:39:03.836Z,33.10
2023-01-21T04:44:05.987Z,34.85
2023-01-21T04:49:07.839Z,30.23
2023-01-21T04:54:11.602Z,32.45
2023-01-21T04:59:13.555Z,27.85
2023-01-21T05:04:15.669Z,32.20
2023-01-21T05:09:17.622Z,34.33
2023-01-21T05:14:19.346Z,27.50
2023-01-21T05:19:21.172Z,21.88
2023-01-21T05:24:22.929Z,19.20
2023-01-21T05:29:25.788Z,16.52
2023-01-21T05:34:27.615Z,22.65
2023-01-21T05:39:31.249Z,19.95
2023-01-21T05:44:33.092Z,19.00
2023-01-21T05:49:35.600Z,21.20
2023-01-21T05:54:37.803Z,18.80
2023-01-21T05:59:40.913Z,19.45
2023-01-21T06:04:42.695Z,19.30
2023-01-21T06:09:44.430Z,21.73
2023-01-21T06:14:46.164Z,18.77
2023-01-21T06:19:47.910Z,21.88
2023-01-21T06:24:49.660Z,17.23
2023-01-21T06:29:51.358Z,18.70
2023-01-21T06:34:53.145Z,20.98
2023-01-21T06:39:54.860Z,18.17
2023-01-21T06:44:57.872Z,22.30
2023-01-21T06:49:59.615Z,20.27
2023-01-21T06:55:01.356Z,25.90
2023-01-21T07:00:03.357Z,20.08
2023-01-21T07:05:06.951Z,20.63
2023-01-21T07:10:09.561Z,21.23
2023-01-21T07:15:12.431Z,27.80
2023-01-21T07:20:15.593Z,22.70
2023-01-21T07:25:17.550Z,23.15
2023-01-21T07:30:20.863Z,22.92
2023-01-21T07:35:23.909Z,22.02
2023-01-21T07:40:26.659Z,20.20
2023-01-21T07:45:28.486Z,18.00
2023-01-21T07:50:30.147Z,19.95
2023-01-21T07:55:32.391Z,20.95
2023-01-21T08:00:34.147Z,20.63
2023-01-21T08:05:35.870Z,22.50
2023-01-21T08:10:38.739Z,24.05
2023-01-21T08:15:40.500Z,21.25
2023-01-21T08:20:44.361Z,19.02
2023-01-21T08:25:46.821Z,22.02
2023-01-21T08:30:48.753Z,26.33
2023-01-21T08:35:52.100Z,17.42
2023-01-21T08:40:53.825Z,19.55
2023-01-21T08:45:57.054Z,19.70
2023-01-21T08:51:00.455Z,21.58
2023-01-21T08:56:05.906Z,17.90
2023-01-21T09:01:12.481Z,19.70
2023-01-21T09:06:14.325Z,17.55
2023-01-21T09:11:17.228Z,18.90
2023-01-21T09:16:21.122Z,17.02
2023-01-21T09:21:23.258Z,16.95
2023-01-21T09:26:25.831Z,19.58
2023-01-21T09:31:30.490Z,16.52
2023-01-21T09:36:34.262Z,18.33
2023-01-21T09:41:44.134Z,16.23
2023-01-21T09:47:25.678Z,15.88
2023-01-21T09:52:37.990Z,17.30
2023-01-21T09:58:04.703Z,15.18
2023-01-21T10:03:28.475Z,16.90
2023-01-21T10:08:54.666Z,15.82
2023-01-21T10:14:32.520Z,14.30
2023-01-21T10:19:46.389Z,15.40
2023-01-21T10:24:53.724Z,15.18
2023-01-21T10:30:08.202Z,15.77
2023-01-21T10:35:20.598Z,13.05
2023-01-21T10:40:46.141Z,13.25
2023-01-21T10:46:04.993Z,14.57
2023-01-21T10:51:40.196Z,14.43
2023-01-21T10:57:17.224Z,14.13
2023-01-21T11:02:31.765Z,13.35
2023-01-21T11:07:38.026Z,14.35
2023-01-21T11:12:39.798Z,17.35
2023-01-21T11:17:44.886Z,12.90
2023-01-21T11:22:46.696Z,17.08
2023-01-21T11:27:48.400Z,18.50
2023-01-21T11:32:50.176Z,14.90
2023-01-21T11:37:52.155Z,14.38
2023-01-21T11:42:57.148Z,15.85
2023-01-21T11:48:00.041Z,18.25
2023-01-21T11:53:13.755Z,16.25
2023-01-21T11:58:38.654Z,15.52
2023-01-21T12:03:51.496Z,20.13
2023-01-21T12:08:58.330Z,17.70
2023-01-21T12:14:18.513Z,15.05
2023-01-21T12:19:40.120Z,16.10
2023-01-21T12:24:47.655Z,14.68
2023-01-21T12:30:17.075Z,15.88
2023-01-21T12:35:43.776Z,17.17
2023-01-21T12:41:14.203Z,14.82
2023-01-21T12:46:25.026Z,17.73
2023-01-21T12:51:37.075Z,14.02
2023-01-21T12:56:52.214Z,12.98
2023-01-21T13:02:12.773Z,14.45
2023-01-21T13:08:05.790Z,15.73
2023-01-21T13:13:29.957Z,16.08
2023-01-21T13:18:53.006Z,17.67
2023-01-21T13:24:00.114Z,17.88
2023-01-21T13:29:10.729Z,18.55
2023-01-21T13:34:49.071Z,17.48
2023-01-21T13:40:18.003Z,17.77
2023-01-21T13:45:25.687Z,18.15
2023-01-21T13:50:56.634Z,17.88
2023-01-21T13:56:26.380Z,15.77
2023-01-21T14:01:45.797Z,16.90
2023-01-21T14:07:10.886Z,17.85
2023-01-21T14:12:39.650Z,18.38
2023-01-21T14:17:57.966Z,18.10
2023-01-21T14:23:22.443Z,19.48
2023-01-21T14:28:54.575Z,17.30
2023-01-21T14:34:17.796Z,17.83
2023-01-21T14:39:19.452Z,19.80
2023-01-21T14:44:42.169Z,20.30
2023-01-21T14:49:50.132Z,19.60
2023-01-21T14:54:54.264Z,17.73
2023-01-21T15:00:15.606Z,17.15
2023-01-21T15:05:30.732Z,18.83
2023-01-21T15:10:40.866Z,19.55
2023-01-21T15:16:17.863Z,20.73
2023-01-21T15:21:43.562Z,20.35
2023-01-21T15:27:17.051Z,24.17
2023-01-21T15:32:47.947Z,25.00
2023-01-21T15:37:52.801Z,19.23
2023-01-21T15:43:04.426Z,21.70
2023-01-21T15:48:47.494Z,20.42
2023-01-21T15:54:01.434Z,20.85
2023-01-21T15:59:33.719Z,17.50
2023-01-21T16:05:00.203Z,16.65
2023-01-21T16:10:08.227Z,17.70
2023-01-21T16:15:32.448Z,18.50
2023-01-21T16:20:34.990Z,20.60
2023-01-21T16:25:46.201Z,20.45
2023-01-21T16:30:57.514Z,19.35
2023-01-21T16:36:05.740Z,17.48
2023-01-21T16:41:09.938Z,20.45
2023-01-21T16:46:14.361Z,19.33
2023-01-21T16:51:25.101Z,18.38
2023-01-21T16:56:30.269Z,21.08
2023-01-21T17:01:32.354Z,20.60
2023-01-21T17:06:34.209Z,20.77
2023-01-21T17:11:39.346Z,17.67
2023-01-21T17:16:42.037Z,16.02
2023-01-21T17:21:47.440Z,38.33
2023-01-21T17:26:53.275Z,17.70
2023-01-21T17:32:31.505Z,19.08
2023-01-21T17:37:50.948Z,16.17
2023-01-21T17:42:53.193Z,20.60
2023-01-21T17:48:14.412Z,18.42
2023-01-21T17:53:25.225Z,10.75
2023-01-21T17:58:45.969Z,13.82
2023-01-21T18:03:47.865Z,15.85
2023-01-21T18:08:50.839Z,13.90
2023-01-21T18:13:52.796Z,16.33
2023-01-21T18:18:55.688Z,9.80
2023-01-21T18:23:57.581Z,22.00
2023-01-21T18:28:59.718Z,9.90
2023-01-21T18:34:01.696Z,11.32
2023-01-21T18:39:14.475Z,12.50
2023-01-21T18:44:16.409Z,13.23
2023-01-21T18:49:19.972Z,11.68
2023-01-21T18:54:21.701Z,9.68
2023-01-21T18:59:23.425Z,8.52
2023-01-21T19:04:25.154Z,8.85
2023-01-21T19:09:27.712Z,9.32
2023-01-21T19:14:30.673Z,7.93
2023-01-21T19:19:34.446Z,7.80
2023-01-21T19:24:36.402Z,7.60
2023-01-21T19:29:38.070Z,7.13
2023-01-21T19:34:39.944Z,5.40
2023-01-21T19:39:41.815Z,6.45
2023-01-21T19:44:43.624Z,8.90
2023-01-21T19:49:48.297Z,5.43
2023-01-21T19:54:50.071Z,6.45
2023-01-21T19:59:53.393Z,5.45
2023-01-21T20:04:55.635Z,6.65
2023-01-21T20:09:58.128Z,9.75
2023-01-21T20:15:01.385Z,5.38
2023-01-21T20:20:17.362Z,5.68
2023-01-21T20:25:38.799Z,6.38
2023-01-21T20:30:40.521Z,8.15
2023-01-21T20:35:50.030Z,7.05
2023-01-21T20:40:51.777Z,6.32
2023-01-21T20:45:56.479Z,6.45
2023-01-21T20:50:59.964Z,4.07
2023-01-21T20:56:18.719Z,7.18
2023-01-21T21:01:24.776Z,4.97
2023-01-21T21:06:28.874Z,3.97
2023-01-21T21:11:30.658Z,3.60
2023-01-21T21:16:34.267Z,4.65
2023-01-21T21:21:36.054Z,3.28
2023-01-21T21:26:40.765Z,4.78
2023-01-21T21:31:42.696Z,4.05
2023-01-21T21:36:44.796Z,3.50
2023-01-21T21:42:04.834Z,3.03
2023-01-21T21:47:27.077Z,5.50
2023-01-21T21:52:30.231Z,4.93
2023-01-21T21:57:32.917Z,4.60
2023-01-21T22:02:34.732Z,4.55
2023-01-21T22:07:38.193Z,5.22
2023-01-21T22:12:39.918Z,4.55
2023-01-21T22:17:41.601Z,3.25
2023-01-21T22:22:43.813Z,4.90
2023-01-21T22:27:45.679Z,4.15
2023-01-21T22:32:47.400Z,5.13
2023-01-21T22:37:49.176Z,3.53
2023-01-21T22:42:50.925Z,4.50
2023-01-21T22:47:52.883Z,5.78
2023-01-21T22:52:55.198Z,5.13
2023-01-21T22:57:57.089Z,4.40
2023-01-21T23:02:59.075Z,5.40
2023-01-21T23:08:01.363Z,6.60
2023-01-21T23:13:04.401Z,8.13
2023-01-21T23:18:06.139Z,4.97
2023-01-21T23:23:09.304Z,5.80
2023-01-21T23:28:15.008Z,6.13
2023-01-21T23:33:16.875Z,5.22
2023-01-21T23:38:21.361Z,6.97
2023-01-21T23:43:27.343Z,6.55
2023-01-21T23:48:29.501Z,6.97
2023-01-21T23:53:32.872Z,6.90
2023-01-21T23:58:34.634Z,7.82
